Time;durP1;ratioP1;P1;durP2;ratioP2;P2;SDS_P1;SDS_P2;PMS_P1;PMS_P2;Temp;Humidity;BMP_temperature;BMP_pressure;BME280_temperature;BME280_humidity;BME280_pressure;Samples;Min_cycle;Max_cycle;Signal;HPM_P1;HPM_P2
2023/08/06 00:00:09;;;;;;;;;;;;;;;;;;5303535;28;19908;-71
2023/08/06 00:02:41;;;;;;;;;;;;;;;;;;5303562;28;19953;-71
2023/08/06 00:05:12;;;;;;;;;;;;;;;;;;5304135;28;19908;-71
2023/08/06 00:07:43;;;;;;;;;;;;;;;;;;5302973;28;20007;-71
2023/08/06 00:10:14;;;;;;;;;;;;;;;;;;5304239;28;20377;-71
2023/08/06 00:12:45;;;;;;;;;;;;;;;;;;5302628;28;19912;-71
2023/08/06 00:15:16;;;;;;;;;;;;;;;;;;5303975;28;20374;-72
2023/08/06 00:17:47;;;;;;;;;;;;;;;;;;5303258;28;19912;-71
2023/08/06 00:20:18;;;;;;;;;;;;;;;;;;5303327;28;19969;-71
2023/08/06 00:22:49;;;;;;;;;;;;;;;;;;5285270;28;19912;-71
2023/08/06 00:25:21;;;;;;;;;;;;;;;;;;5303918;28;20317;-72
2023/08/06 00:27:52;;;;;;;;;;;;;;;;;;5302485;28;19909;-71
2023/08/06 00:30:23;;;;;;;;;;;;;;;;;;5303359;28;19955;-72
2023/08/06 00:32:55;;;;;;;;;;;;;;;;;;5303428;28;19920;-71
2023/08/06 00:35:26;;;;;;;;;;;;;;;;;;5302732;28;19916;-72
2023/08/06 00:37:57;;;;;;;;;;;;;;;;;;5303439;28;19912;-71
2023/08/06 00:40:30;;;;;;;;;;;;;;;;;;5303266;28;19908;-71
2023/08/06 00:43:01;;;;;;;;;;;;;;;;;;5303022;28;19908;-71
2023/08/06 00:45:32;;;;;;;;;;;;;;;;;;5302913;28;19908;-71
2023/08/06 00:48:03;;;;;;;;;;;;;;;;;;5302866;28;19947;-71
2023/08/06 00:50:34;;;;;;;;;;;;;;;;;;5302885;28;19958;-71
2023/08/06 00:53:05;;;;;;;;;;;;;;;;;;5303496;28;20000;-71
2023/08/06 00:55:36;;;;;;;;;;;;;;;;;;5302200;28;20011;-71
2023/08/06 00:58:07;;;;;;;;;;;;;;;;;;5303577;28;19908;-71
2023/08/06 01:00:39;;;;;;;;;;;;;;;;;;5302925;28;20424;-71
2023/08/06 01:03:10;;;;;;;;;;;;;;;;;;5302584;28;19912;-71
2023/08/06 01:05:41;;;;;;;;;;;;;;;;;;5302677;28;19908;-71
2023/08/06 01:08:12;;;;;;;;;;;;;;;;;;5306984;28;19955;-70
2023/08/06 01:10:44;;;;;;;;;;;;;;;;;;5306211;28;20248;-72
2023/08/06 01:13:15;;;;;;;;;;;;;;;;;;5307717;28;20260;-71
2023/08/06 01:15:46;;;;;;;;;;;;;;;;;;5306090;28;19917;-71
2023/08/06 01:18:17;;;;;;;;;;;;;;;;;;5307603;28;19916;-71
2023/08/06 01:20:49;;;;;;;;;;;;;;;;;;5307085;28;19919;-72
2023/08/06 01:23:20;;;;;;;;;;;;;;;;;;5306658;28;19915;-71
2023/08/06 01:25:51;;;;;;;;;;;;;;;;;;5306759;28;19908;-71
2023/08/06 01:28:23;;;;;;;;;;;;;;;;;;5307220;28;19908;-71
2023/08/06 01:30:54;;;;;;;;;;;;;;;;;;5306330;28;19915;-71
2023/08/06 01:33:25;;;;;;;;;;;;;;;;;;5306979;28;19926;-72
2023/08/06 01:35:56;;;;;;;;;;;;;;;;;;5306954;28;19926;-71
2023/08/06 01:38:28;;;;;;;;;;;;;;;;;;5306021;28;19908;-71
2023/08/06 01:40:59;;;;;;;;;;;;;;;;;;5306664;28;19915;-71
2023/08/06 01:43:30;;;;;;;;;;;;;;;;;;5306206;28;19914;-72
2023/08/06 01:46:01;;;;;;;;;;;;;;;;;;5306245;28;20281;-71
2023/08/06 01:48:32;;;;;;;;;;;;;;;;;;5306178;28;19915;-71
2023/08/06 01:51:03;;;;;;;;;;;;;;;;;;5306045;28;20272;-71
2023/08/06 01:53:34;;;;;;;;;;;;;;;;;;5306095;28;19908;-70
2023/08/06 01:56:06;;;;;;;;;;;;;;;;;;5306889;28;20420;-70
2023/08/06 01:58:37;;;;;;;;;;;;;;;;;;5304697;28;19915;-71
2023/08/06 02:01:08;;;;;;;;;;;;;;;;;;5306788;28;19919;-70
2023/08/06 02:03:39;;;;;;;;;;;;;;;;;;5305899;28;19912;-71
2023/08/06 02:06:10;;;;;;;;;;;;;;;;;;5305671;28;19969;-70
2023/08/06 02:08:41;;;;;;;;;;;;;;;;;;5306005;28;19915;-71
2023/08/06 02:11:12;;;;;;;;;;;;;;;;;;5306494;28;20256;-71
2023/08/06 02:13:43;;;;;;;;;;;;;;;;;;5304850;28;19919;-70
2023/08/06 02:16:14;;;;;;;;;;;;;;;;;;5306181;28;19909;-70
2023/08/06 02:18:46;;;;;;;;;;;;;;;;;;5304985;28;20317;-70
2023/08/06 02:21:17;;;;;;;;;;;;;;;;;;5305711;28;19912;-70
2023/08/06 02:23:48;;;;;;;;;;;;;;;;;;5305717;28;20003;-70
2023/08/06 02:26:19;;;;;;;;;;;;;;;;;;5305467;28;19912;-70
2023/08/06 02:28:50;;;;;;;;;;;;;;;;;;5305318;28;19908;-71
2023/08/06 02:31:21;;;;;;;;;;;;;;;;;;5306230;28;20003;-70
2023/08/06 02:33:53;;;;;;;;;;;;;;;;;;5304390;28;19920;-71
2023/08/06 02:36:27;;;;;;;;;;;;;;;;;;5305536;28;19912;-71
2023/08/06 02:38:58;;;;;;;;;;;;;;;;;;5305553;28;19998;-70
2023/08/06 02:41:29;;;;;;;;;;;;;;;;;;5304420;28;20060;-71
2023/08/06 02:44:00;;;;;;;;;;;;;;;;;;5305811;28;19953;-70
2023/08/06 02:46:31;;;;;;;;;;;;;;;;;;5304947;28;19908;-71
2023/08/06 02:49:02;;;;;;;;;;;;;;;;;;5304821;28;19915;-70
2023/08/06 02:51:33;;;;;;;;;;;;;;;;;;5305153;28;20418;-71
2023/08/06 02:54:04;;;;;;;;;;;;;;;;;;5305403;28;20002;-71
2023/08/06 02:56:36;;;;;;;;;;;;;;;;;;5304374;28;20280;-71
2023/08/06 02:59:07;;;;;;;;;;;;;;;;;;5305649;28;20011;-70
2023/08/06 03:01:38;;;;;;;;;;;;;;;;;;5304097;28;19974;-70
2023/08/06 03:04:09;;;;;;;;;;;;;;;;;;5305184;28;19916;-70
2023/08/06 03:06:40;;;;;;;;;;;;;;;;;;5304730;28;20229;-71
2023/08/06 03:09:11;;;;;;;;;;;;;;;;;;5304184;28;19915;-70
2023/08/06 03:11:42;;;;;;;;;;;;;;;;;;5304374;28;20393;-70
2023/08/06 03:14:13;;;;;;;;;;;;;;;;;;5305093;28;20354;-70
2023/08/06 03:16:44;;;;;;;;;;;;;;;;;;5303575;28;19908;-71
2023/08/06 03:19:15;;;;;;;;;;;;;;;;;;5305299;28;19948;-70
2023/08/06 03:21:47;;;;;;;;;;;;;;;;;;5304623;28;19943;-71
2023/08/06 03:24:18;;;;;;;;;;;;;;;;;;5304352;28;19948;-70
2023/08/06 03:26:49;;;;;;;;;;;;;;;;;;5304187;28;20552;-71
2023/08/06 03:29:21;;;;;;;;;;;;;;;;;;5304613;28;19914;-70
2023/08/06 03:31:52;;;;;;;;;;;;;;;;;;5304313;28;19953;-71
2023/08/06 03:34:24;;;;;;;;;;;;;;;;;;5303720;28;19924;-71
2023/08/06 03:36:55;;;;;;;;;;;;;;;;;;5303751;28;19912;-70
2023/08/06 03:39:26;;;;;;;;;;;;;;;;;;5304277;28;19916;-71
2023/08/06 03:41:57;;;;;;;;;;;;;;;;;;5304354;28;19912;-70
2023/08/06 03:44:28;;;;;;;;;;;;;;;;;;5303795;28;19939;-71
2023/08/06 03:46:59;;;;;;;;;;;;;;;;;;5304446;28;19961;-70
2023/08/06 03:49:30;;;;;;;;;;;;;;;;;;5303985;28;20268;-72
2023/08/06 03:52:01;;;;;;;;;;;;;;;;;;5303681;28;19912;-71
2023/08/06 03:54:32;;;;;;;;;;;;;;;;;;5303746;28;20371;-71
2023/08/06 03:57:03;;;;;;;;;;;;;;;;;;5304184;28;19998;-72
2023/08/06 03:59:35;;;;;;;;;;;;;;;;;;5303130;28;20334;-71
2023/08/06 04:02:06;;;;;;;;;;;;;;;;;;5304002;28;19908;-73
2023/08/06 04:04:37;;;;;;;;;;;;;;;;;;5302958;28;20013;-73
2023/08/06 04:07:08;;;;;;;;;;;;;;;;;;5304228;28;19995;-73
2023/08/06 04:09:39;;;;;;;;;;;;;;;;;;5303544;28;20343;-73
2023/08/06 04:12:10;;;;;;;;;;;;;;;;;;5303173;28;19908;-72
2023/08/06 04:14:41;;;;;;;;;;;;;;;;;;5303104;28;19916;-72
2023/08/06 04:17:12;;;;;;;;;;;;;;;;;;5303706;28;19961;-73
2023/08/06 04:19:44;;;;;;;;;;;;;;;;;;5302849;28;19912;-73
2023/08/06 04:22:15;;;;;;;;;;;;;;;;;;5303958;28;19908;-72
2023/08/06 04:24:46;;;;;;;;;;;;;;;;;;5303101;28;19919;-72
2023/08/06 04:27:18;;;;;;;;;;;;;;;;;;5303055;28;19931;-72
2023/08/06 04:29:49;;;;;;;;;;;;;;;;;;5303092;28;19912;-72
2023/08/06 04:32:20;;;;;;;;;;;;;;;;;;5303448;28;19915;-72
2023/08/06 04:34:51;;;;;;;;;;;;;;;;;;5302392;28;20316;-72
2023/08/06 04:37:22;;;;;;;;;;;;;;;;;;5303663;28;19908;-72
2023/08/06 04:39:53;;;;;;;;;;;;;;;;;;5302209;28;19908;-72
2023/08/06 04:42:25;;;;;;;;;;;;;;;;;;5302731;28;19965;-72
2023/08/06 04:44:56;;;;;;;;;;;;;;;;;;5303335;28;19912;-72
2023/08/06 04:47:27;;;;;;;;;;;;;;;;;;5302537;28;20013;-72
2023/08/06 04:49:58;;;;;;;;;;;;;;;;;;5303186;28;19912;-72
2023/08/06 04:52:32;;;;;;;;;;;;;;;;;;5302813;28;19931;-72
2023/08/06 04:55:05;;;;;;;;;;;;;;;;;;5302520;28;20439;-72
2023/08/06 04:57:36;;;;;;;;;;;;;;;;;;5302845;28;19940;-72
2023/08/06 05:00:07;;;;;;;;;;;;;;;;;;5303273;28;19908;-72
2023/08/06 05:02:38;;;;;;;;;;;;;;;;;;5302036;28;19919;-72
2023/08/06 05:05:10;;;;;;;;;;;;;;;;;;5303271;28;19908;-72
2023/08/06 05:07:41;;;;;;;;;;;;;;;;;;5302878;28;19930;-72
2023/08/06 05:10:12;;;;;;;;;;;;;;;;;;5302662;28;19912;-72
2023/08/06 05:12:43;;;;;;;;;;;;;;;;;;5302641;28;19908;-72
2023/08/06 05:15:14;;;;;;;;;;;;;;;;;;5302464;28;20347;-72
2023/08/06 05:17:45;;;;;;;;;;;;;;;;;;5302456;28;19916;-72
2023/08/06 05:20:17;;;;;;;;;;;;;;;;;;5303417;28;20317;-72
2023/08/06 05:22:48;;;;;;;;;;;;;;;;;;5301950;28;19912;-72
2023/08/06 05:25:19;;;;;;;;;;;;;;;;;;5303167;28;19971;-72
2023/08/06 05:27:50;;;;;;;;;;;;;;;;;;5302600;28;19969;-72
2023/08/06 05:30:21;;;;;;;;;;;;;;;;;;5302302;28;19961;-72
2023/08/06 05:32:52;;;;;;;;;;;;;;;;;;5302236;28;19996;-72
2023/08/06 05:35:23;;;;;;;;;;;;;;;;;;5302823;28;19924;-72
2023/08/06 05:37:54;;;;;;;;;;;;;;;;;;5301991;28;20423;-72
2023/08/06 05:40:25;;;;;;;;;;;;;;;;;;5302591;28;19908;-72
2023/08/06 05:42:56;;;;;;;;;;;;;;;;;;5302571;28;19915;-72
2023/08/06 05:45:28;;;;;;;;;;;;;;;;;;5301961;28;19908;-72
2023/08/06 05:47:59;;;;;;;;;;;;;;;;;;5302549;28;19915;-72
2023/08/06 05:50:30;;;;;;;;;;;;;;;;;;5301567;28;19908;-73
2023/08/06 05:53:01;;;;;;;;;;;;;;;;;;5302772;28;20057;-72
2023/08/06 05:55:32;;;;;;;;;;;;;;;;;;5306167;28;19924;-72
2023/08/06 05:58:04;;;;;;;;;;;;;;;;;;5305960;28;19909;-72
2023/08/06 06:00:35;;;;;;;;;;;;;;;;;;5306030;28;19908;-72
2023/08/06 06:03:06;;;;;;;;;;;;;;;;;;5306647;28;19982;-70
2023/08/06 06:05:37;;;;;;;;;;;;;;;;;;5305075;28;19912;-71
2023/08/06 06:08:08;;;;;;;;;;;;;;;;;;5306413;28;19909;-71
2023/08/06 06:10:39;;;;;;;;;;;;;;;;;;5305972;28;20266;-71
2023/08/06 06:13:11;;;;;;;;;;;;;;;;;;5305608;28;19915;-71
2023/08/06 06:15:42;;;;;;;;;;;;;;;;;;5305658;28;19916;-71
2023/08/06 06:18:13;;;;;;;;;;;;;;;;;;5305514;28;19915;-71
2023/08/06 06:20:44;;;;;;;;;;;;;;;;;;5305659;28;19912;-71
2023/08/06 06:23:15;;;;;;;;;;;;;;;;;;5306074;28;19916;-71
2023/08/06 06:25:46;;;;;;;;;;;;;;;;;;5304764;28;19908;-71
2023/08/06 06:28:17;;;;;;;;;;;;;;;;;;5305961;28;20282;-70
2023/08/06 06:30:48;;;;;;;;;;;;;;;;;;5305431;28;19915;-71
2023/08/06 06:33:20;;;;;;;;;;;;;;;;;;5304999;28;19924;-70
2023/08/06 06:35:51;;;;;;;;;;;;;;;;;;5305284;28;19920;-71
2023/08/06 06:38:22;;;;;;;;;;;;;;;;;;5305885;28;19953;-70
2023/08/06 06:40:53;;;;;;;;;;;;;;;;;;5304277;28;19962;-70
2023/08/06 06:43:24;;;;;;;;;;;;;;;;;;5305604;28;19918;-70
2023/08/06 06:45:55;;;;;;;;;;;;;;;;;;5305527;28;19908;-70
2023/08/06 06:48:26;;;;;;;;;;;;;;;;;;5304592;28;19951;-70
2023/08/06 06:50:58;;;;;;;;;;;;;;;;;;5305161;28;20285;-70
2023/08/06 06:53:29;;;;;;;;;;;;;;;;;;5304332;28;19957;-70
2023/08/06 06:56:00;;;;;;;;;;;;;;;;;;5305134;28;19916;-71
2023/08/06 06:58:31;;;;;;;;;;;;;;;;;;5304911;28;19951;-71
2023/08/06 07:01:02;;;;;;;;;;;;;;;;;;5304562;28;19959;-70
2023/08/06 07:03:33;;;;;;;;;;;;;;;;;;5304652;28;20023;-71
2023/08/06 07:06:05;;;;;;;;;;;;;;;;;;5304804;28;20042;-71
2023/08/06 07:08:36;;;;;;;;;;;;;;;;;;5303864;28;19961;-71
2023/08/06 07:11:07;;;;;;;;;;;;;;;;;;5305331;28;20320;-71
2023/08/06 07:13:39;;;;;;;;;;;;;;;;;;5304573;28;19912;-71
2023/08/06 07:16:10;;;;;;;;;;;;;;;;;;5304252;28;19961;-72
2023/08/06 07:18:41;;;;;;;;;;;;;;;;;;5304332;28;19909;-72
2023/08/06 07:21:12;;;;;;;;;;;;;;;;;;5305063;28;19931;-72
2023/08/06 07:23:43;;;;;;;;;;;;;;;;;;5303640;28;19919;-72
2023/08/06 07:26:14;;;;;;;;;;;;;;;;;;5304942;28;19908;-71
2023/08/06 07:28:45;;;;;;;;;;;;;;;;;;5303344;28;19991;-71
2023/08/06 07:31:16;;;;;;;;;;;;;;;;;;5304676;28;19908;-72
2023/08/06 07:33:48;;;;;;;;;;;;;;;;;;5303894;28;20383;-72
2023/08/06 07:36:19;;;;;;;;;;;;;;;;;;5304212;28;19920;-72
2023/08/06 07:38:55;;;;;;;;;;;;;;;;;;5303965;28;19919;-72
2023/08/06 07:41:26;;;;;;;;;;;;;;;;;;5304111;28;19915;-73
2023/08/06 07:43:57;;;;;;;;;;;;;;;;;;5303671;28;19908;-72
2023/08/06 07:46:28;;;;;;;;;;;;;;;;;;5304252;28;20359;-71
2023/08/06 07:48:59;;;;;;;;;;;;;;;;;;5304169;28;19908;-72
2023/08/06 07:51:30;;;;;;;;;;;;;;;;;;5302903;28;19915;-72
2023/08/06 07:54:02;;;;;;;;;;;;;;;;;;5304164;28;19909;-72
2023/08/06 07:56:33;;;;;;;;;;;;;;;;;;5303849;28;19908;-72
2023/08/06 07:59:04;;;;;;;;;;;;;;;;;;5303481;28;20359;-71
2023/08/06 08:01:35;;;;;;;;;;;;;;;;;;5303356;28;19908;-72
2023/08/06 08:04:06;;;;;;;;;;;;;;;;;;5303243;28;19908;-73
2023/08/06 08:06:37;;;;;;;;;;;;;;;;;;5303423;28;20319;-71
2023/08/06 08:09:08;;;;;;;;;;;;;;;;;;5304250;28;20008;-72
2023/08/06 08:11:40;;;;;;;;;;;;;;;;;;5302615;28;19908;-72
2023/08/06 08:14:11;;;;;;;;;;;;;;;;;;5303507;28;19915;-72
2023/08/06 08:16:42;;;;;;;;;;;;;;;;;;5302453;28;19914;-72
2023/08/06 08:19:13;;;;;;;;;;;;;;;;;;5306622;28;19920;-71
2023/08/06 08:21:44;;;;;;;;;;;;;;;;;;5305115;28;20355;-71
2023/08/06 08:24:19;;;;;;;;;;;;;;;;;;5303759;28;19908;-71
2023/08/06 08:26:50;;;;;;;;;;;;;;;;;;5310863;28;20263;-72
2023/08/06 08:29:21;;;;;;;;;;;;;;;;;;5324758;28;19914;-72
2023/08/06 08:31:52;;;;;;;;;;;;;;;;;;5320312;28;19934;-72
2023/08/06 08:34:24;;;;;;;;;;;;;;;;;;5323915;28;20007;-73
2023/08/06 08:36:57;;;;;;;;;;;;;;;;;;5323384;28;20366;-73
2023/08/06 08:39:28;;;;;;;;;;;;;;;;;;5323494;28;19912;-73
2023/08/06 08:41:59;;;;;;;;;;;;;;;;;;5323412;28;19957;-73
2023/08/06 08:44:32;;;;;;;;;;;;;;;;;;5324295;28;20263;-73
2023/08/06 08:47:03;;;;;;;;;;;;;;;;;;5324067;28;20266;-71
2023/08/06 08:49:34;;;;;;;;;;;;;;;;;;5324111;28;19908;-73
2023/08/06 08:52:10;;;;;;;;;;;;;;;;;;5324544;28;19954;-72
2023/08/06 08:54:41;;;;;;;;;;;;;;;;;;5317840;28;19920;-71
2023/08/06 08:57:12;;;;;;;;;;;;;;;;;;5323466;28;20377;-72
2023/08/06 08:59:43;;;;;;;;;;;;;;;;;;5323145;28;19912;-71
2023/08/06 09:02:15;;;;;;;;;;;;;;;;;;5323185;28;20397;-71
2023/08/06 09:04:46;;;;;;;;;;;;;;;;;;5323266;28;19908;-72
2023/08/06 09:07:17;;;;;;;;;;;;;;;;;;5323802;28;20761;-72
2023/08/06 09:09:49;;;;;;;;;;;;;;;;;;5323696;28;19965;-71
2023/08/06 09:12:20;;;;;;;;;;;;;;;;;;5324634;28;19912;-72
2023/08/06 09:14:51;;;;;;;;;;;;;;;;;;5322617;28;19920;-72
2023/08/06 09:17:22;;;;;;;;;;;;;;;;;;5324072;28;19915;-71
2023/08/06 09:19:53;;;;;;;;;;;;;;;;;;5317263;28;19951;-71
2023/08/06 09:22:24;;;;;;;;;;;;;;;;;;5303391;28;19965;-71
2023/08/06 09:24:55;;;;;;;;;;;;;;;;;;5302619;28;19908;-71
2023/08/06 09:27:26;;;;;;;;;;;;;;;;;;5303214;28;19908;-72
2023/08/06 09:29:57;;;;;;;;;;;;;;;;;;5305952;28;19908;-72
2023/08/06 09:32:29;;;;;;;;;;;;;;;;;;5307027;28;20251;-71
2023/08/06 09:35:00;;;;;;;;;;;;;;;;;;5306424;28;19973;-71
2023/08/06 09:37:31;;;;;;;;;;;;;;;;;;5305400;28;19915;-72
2023/08/06 09:40:02;;;;;;;;;;;;;;;;;;5306781;28;19908;-72
2023/08/06 09:42:33;;;;;;;;;;;;;;;;;;5305723;28;19908;-74
2023/08/06 09:45:04;;;;;;;;;;;;;;;;;;5306774;28;19915;-73
2023/08/06 09:47:38;;;;;;;;;;;;;;;;;;5306125;28;19915;-75
2023/08/06 09:50:09;;;;;;;;;;;;;;;;;;5305872;28;20007;-73
2023/08/06 09:52:40;;;;;;;;;;;;;;;;;;5305940;28;20011;-73
2023/08/06 09:55:11;;;;;;;;;;;;;;;;;;5306530;28;19916;-73
2023/08/06 09:57:42;;;;;;;;;;;;;;;;;;5305342;28;19912;-72
2023/08/06 10:00:13;;;;;;;;;;;;;;;;;;5305965;28;19999;-72
2023/08/06 10:02:45;;;;;;;;;;;;;;;;;;5305702;28;20274;-72
2023/08/06 10:05:16;;;;;;;;;;;;;;;;;;5305646;28;19915;-72
2023/08/06 10:07:47;;;;;;;;;;;;;;;;;;5305689;28;19931;-72
2023/08/06 10:10:19;;;;;;;;;;;;;;;;;;5305785;28;19935;-72
2023/08/06 10:12:50;;;;;;;;;;;;;;;;;;5305675;28;19919;-72
2023/08/06 10:15:24;;;;;;;;;;;;;;;;;;5308675;28;19920;-72
2023/08/06 10:17:55;;;;;;;;;;;;;;;;;;5305128;28;19908;-72
2023/08/06 10:20:26;;;;;;;;;;;;;;;;;;5305975;28;20256;-76
2023/08/06 10:22:57;;;;;;;;;;;;;;;;;;5305792;28;19915;-74
2023/08/06 10:25:28;;;;;;;;;;;;;;;;;;5305062;28;20069;-73
2023/08/06 10:27:59;;;;;;;;;;;;;;;;;;5305470;28;19919;-73
2023/08/06 10:30:31;;;;;;;;;;;;;;;;;;5305511;28;19910;-72
2023/08/06 10:33:02;;;;;;;;;;;;;;;;;;5305036;28;19921;-74
2023/08/06 10:35:33;;;;;;;;;;;;;;;;;;5305299;28;19941;-71
2023/08/06 10:38:05;;;;;;;;;;;;;;;;;;5305815;28;19988;-72
2023/08/06 10:40:36;;;;;;;;;;;;;;;;;;5303738;28;19908;-72
2023/08/06 10:43:09;;;;;;;;;;;;;;;;;;5306004;28;20020;-73
2023/08/06 10:45:40;;;;;;;;;;;;;;;;;;5309069;28;19915;-72
2023/08/06 10:48:11;;;;;;;;;;;;;;;;;;5326507;28;19908;-73
2023/08/06 10:50:42;;;;;;;;;;;;;;;;;;5325852;28;19931;-72
2023/08/06 10:53:13;;;;;;;;;;;;;;;;;;5325793;28;20357;-73
2023/08/06 10:55:45;;;;;;;;;;;;;;;;;;5325981;28;19916;-72
2023/08/06 10:58:16;;;;;;;;;;;;;;;;;;5326215;28;19915;-73
2023/08/06 11:00:47;;;;;;;;;;;;;;;;;;5324735;28;19995;-73
2023/08/06 11:03:18;;;;;;;;;;;;;;;;;;5326245;28;20072;-72
2023/08/06 11:05:50;;;;;;;;;;;;;;;;;;5325703;28;19951;-73
2023/08/06 11:08:21;;;;;;;;;;;;;;;;;;5325456;28;19908;-73
2023/08/06 11:10:52;;;;;;;;;;;;;;;;;;5325409;28;20062;-73
2023/08/06 11:13:25;;;;;;;;;;;;;;;;;;5325822;28;20367;-73
2023/08/06 11:15:57;;;;;;;;;;;;;;;;;;5321465;28;19980;-73
2023/08/06 11:18:29;;;;;;;;;;;;;;;;;;5324731;28;19934;-73
2023/08/06 11:21:00;;;;;;;;;;;;;;;;;;5324429;28;19908;-73
2023/08/06 11:23:31;;;;;;;;;;;;;;;;;;5325126;28;19911;-73
2023/08/06 11:26:03;;;;;;;;;;;;;;;;;;5326003;28;20382;-73
2023/08/06 11:28:34;;;;;;;;;;;;;;;;;;5324246;28;20007;-74
2023/08/06 11:31:05;;;;;;;;;;;;;;;;;;5325845;28;19908;-73
2023/08/06 11:33:36;;;;;;;;;;;;;;;;;;5324352;28;19999;-72
2023/08/06 11:36:07;;;;;;;;;;;;;;;;;;5325045;28;20006;-73
2023/08/06 11:38:39;;;;;;;;;;;;;;;;;;5324947;28;19908;-72
2023/08/06 11:41:10;;;;;;;;;;;;;;;;;;5325166;28;19912;-73
2023/08/06 11:43:41;;;;;;;;;;;;;;;;;;5324209;28;19908;-73
2023/08/06 11:46:12;;;;;;;;;;;;;;;;;;5325581;28;20382;-72
2023/08/06 11:48:43;;;;;;;;;;;;;;;;;;5324034;28;19915;-72
2023/08/06 11:51:15;;;;;;;;;;;;;;;;;;5323995;28;19907;-73
2023/08/06 11:53:46;;;;;;;;;;;;;;;;;;5324397;28;19919;-73
2023/08/06 11:56:17;;;;;;;;;;;;;;;;;;5324532;28;19916;-73
2023/08/06 11:58:48;;;;;;;;;;;;;;;;;;5323346;28;19911;-72
2023/08/06 12:01:19;;;;;;;;;;;;;;;;;;5324935;28;20014;-72
2023/08/06 12:03:50;;;;;;;;;;;;;;;;;;5322633;28;20373;-72
2023/08/06 12:06:21;;;;;;;;;;;;;;;;;;5324206;28;19953;-72
2023/08/06 12:08:52;;;;;;;;;;;;;;;;;;5324799;28;19936;-71
2023/08/06 12:11:24;;;;;;;;;;;;;;;;;;5323991;28;19908;-72
2023/08/06 12:13:56;;;;;;;;;;;;;;;;;;5324739;28;19912;-71
2023/08/06 12:16:27;;;;;;;;;;;;;;;;;;5324605;28;19920;-71
2023/08/06 12:18:59;;;;;;;;;;;;;;;;;;5323887;28;20420;-72
2023/08/06 12:21:30;;;;;;;;;;;;;;;;;;5324532;28;19960;-73
2023/08/06 12:24:01;;;;;;;;;;;;;;;;;;5324136;28;19915;-73
2023/08/06 12:26:32;;;;;;;;;;;;;;;;;;5324174;28;20282;-72
2023/08/06 12:29:03;;;;;;;;;;;;;;;;;;5324776;28;19959;-72
2023/08/06 12:31:34;;;;;;;;;;;;;;;;;;5323587;28;20391;-72
2023/08/06 12:34:06;;;;;;;;;;;;;;;;;;5324702;28;19952;-72
2023/08/06 12:36:37;;;;;;;;;;;;;;;;;;5324179;28;19916;-72
2023/08/06 12:39:08;;;;;;;;;;;;;;;;;;5323875;28;19907;-72
2023/08/06 12:41:39;;;;;;;;;;;;;;;;;;5323868;28;19908;-72
2023/08/06 12:44:10;;;;;;;;;;;;;;;;;;5324783;28;20279;-73
2023/08/06 12:46:41;;;;;;;;;;;;;;;;;;5323142;28;19908;-72
2023/08/06 12:49:12;;;;;;;;;;;;;;;;;;5324541;28;19915;-72
2023/08/06 12:51:43;;;;;;;;;;;;;;;;;;5323943;28;19908;-73
2023/08/06 12:54:14;;;;;;;;;;;;;;;;;;5323662;28;19908;-72
2023/08/06 12:56:46;;;;;;;;;;;;;;;;;;5323820;28;19915;-72
2023/08/06 12:59:17;;;;;;;;;;;;;;;;;;5323890;28;19939;-72
2023/08/06 13:01:49;;;;;;;;;;;;;;;;;;5323864;28;20021;-74
2023/08/06 13:04:20;;;;;;;;;;;;;;;;;;5328280;28;19908;-72
2023/08/06 13:06:51;;;;;;;;;;;;;;;;;;5327531;28;20377;-72
2023/08/06 13:09:22;;;;;;;;;;;;;;;;;;5328836;28;20396;-72
2023/08/06 13:11:53;;;;;;;;;;;;;;;;;;5328384;28;19908;-73
2023/08/06 13:14:24;;;;;;;;;;;;;;;;;;5327709;28;20262;-74
2023/08/06 13:16:55;;;;;;;;;;;;;;;;;;5328285;28;19908;-71
2023/08/06 13:19:27;;;;;;;;;;;;;;;;;;5328402;28;20351;-72
2023/08/06 13:21:58;;;;;;;;;;;;;;;;;;5327466;28;19912;-72
2023/08/06 13:24:29;;;;;;;;;;;;;;;;;;5328050;28;19912;-73
2023/08/06 13:27:00;;;;;;;;;;;;;;;;;;5328244;28;19947;-74
2023/08/06 13:29:31;;;;;;;;;;;;;;;;;;5326920;28;19908;-73
2023/08/06 13:32:02;;;;;;;;;;;;;;;;;;5328469;28;20281;-74
2023/08/06 13:34:33;;;;;;;;;;;;;;;;;;5326652;28;19921;-73
2023/08/06 13:37:04;;;;;;;;;;;;;;;;;;5328299;28;19968;-73
2023/08/06 13:39:35;;;;;;;;;;;;;;;;;;5327469;28;19911;-73
2023/08/06 13:42:06;;;;;;;;;;;;;;;;;;5327211;28;19929;-74
2023/08/06 13:44:38;;;;;;;;;;;;;;;;;;5327567;28;19908;-73
2023/08/06 13:47:09;;;;;;;;;;;;;;;;;;5324510;28;19912;-72
2023/08/06 13:49:40;;;;;;;;;;;;;;;;;;5326204;28;19908;-73
2023/08/06 13:52:11;;;;;;;;;;;;;;;;;;5328010;28;19951;-73
2023/08/06 13:54:42;;;;;;;;;;;;;;;;;;5326955;28;19959;-75
2023/08/06 13:57:13;;;;;;;;;;;;;;;;;;5326942;28;20374;-73
2023/08/06 13:59:44;;;;;;;;;;;;;;;;;;5326860;28;19990;-73
2023/08/06 14:02:16;;;;;;;;;;;;;;;;;;5323825;28;19908;-73
2023/08/06 14:04:47;;;;;;;;;;;;;;;;;;5326264;28;20374;-74
2023/08/06 14:07:18;;;;;;;;;;;;;;;;;;5327542;28;19908;-73
2023/08/06 14:09:49;;;;;;;;;;;;;;;;;;5325961;28;19976;-73
2023/08/06 14:12:20;;;;;;;;;;;;;;;;;;5326399;28;19908;-73
2023/08/06 14:14:51;;;;;;;;;;;;;;;;;;5323292;28;19927;-74
2023/08/06 14:17:22;;;;;;;;;;;;;;;;;;5326283;28;19914;-71
2023/08/06 14:19:54;;;;;;;;;;;;;;;;;;5326809;28;19914;-73
2023/08/06 14:22:25;;;;;;;;;;;;;;;;;;5326108;28;19915;-73
2023/08/06 14:24:56;;;;;;;;;;;;;;;;;;5324384;28;20577;-73
2023/08/06 14:27:27;;;;;;;;;;;;;;;;;;5326883;28;19983;-72
2023/08/06 14:29:58;;;;;;;;;;;;;;;;;;5326616;28;20316;-72
2023/08/06 14:32:29;;;;;;;;;;;;;;;;;;5326021;28;19930;-72
2023/08/06 14:35:00;;;;;;;;;;;;;;;;;;5326743;28;20366;-72
2023/08/06 14:37:32;;;;;;;;;;;;;;;;;;5325975;28;20041;-74
2023/08/06 14:40:03;;;;;;;;;;;;;;;;;;5326853;28;19915;-74
2023/08/06 14:42:34;;;;;;;;;;;;;;;;;;5326295;28;19908;-74
2023/08/06 14:45:05;;;;;;;;;;;;;;;;;;5326350;28;20286;-74
2023/08/06 14:47:37;;;;;;;;;;;;;;;;;;5326343;28;19908;-73
2023/08/06 14:50:08;;;;;;;;;;;;;;;;;;5326982;28;19908;-73
2023/08/06 14:52:39;;;;;;;;;;;;;;;;;;5325452;28;19914;-75
2023/08/06 14:55:10;;;;;;;;;;;;;;;;;;5326822;28;20377;-74
2023/08/06 14:57:41;;;;;;;;;;;;;;;;;;5326025;28;19908;-74
2023/08/06 15:00:12;;;;;;;;;;;;;;;;;;5325960;28;19931;-74
2023/08/06 15:02:44;;;;;;;;;;;;;;;;;;5325938;28;19919;-75
2023/08/06 15:05:15;;;;;;;;;;;;;;;;;;5326524;28;19930;-74
2023/08/06 15:07:46;;;;;;;;;;;;;;;;;;5325081;28;19911;-74
2023/08/06 15:10:17;;;;;;;;;;;;;;;;;;5326371;28;19911;-75
2023/08/06 15:12:48;;;;;;;;;;;;;;;;;;5325117;28;19931;-74
2023/08/06 15:15:19;;;;;;;;;;;;;;;;;;5326062;28;19920;-74
2023/08/06 15:17:50;;;;;;;;;;;;;;;;;;5325725;28;20366;-75
2023/08/06 15:20:21;;;;;;;;;;;;;;;;;;5325424;28;19961;-75
2023/08/06 15:22:53;;;;;;;;;;;;;;;;;;5325506;28;20256;-74
2023/08/06 15:25:24;;;;;;;;;;;;;;;;;;5325515;28;19961;-75
2023/08/06 15:27:55;;;;;;;;;;;;;;;;;;5325078;28;19907;-76
2023/08/06 15:30:26;;;;;;;;;;;;;;;;;;5325712;28;19908;-76
2023/08/06 15:32:57;;;;;;;;;;;;;;;;;;5325659;28;19961;-75
2023/08/06 15:35:28;;;;;;;;;;;;;;;;;;5324866;28;19998;-74
2023/08/06 15:37:59;;;;;;;;;;;;;;;;;;5325190;28;19957;-77
2023/08/06 15:40:30;;;;;;;;;;;;;;;;;;5325048;28;19907;-75
2023/08/06 15:43:02;;;;;;;;;;;;;;;;;;5325245;28;20262;-75
2023/08/06 15:45:33;;;;;;;;;;;;;;;;;;5325253;28;19918;-74
2023/08/06 15:48:04;;;;;;;;;;;;;;;;;;5325045;28;19915;-74
2023/08/06 15:50:35;;;;;;;;;;;;;;;;;;5325062;28;19960;-74
2023/08/06 15:53:06;;;;;;;;;;;;;;;;;;5325365;28;20007;-74
2023/08/06 15:55:37;;;;;;;;;;;;;;;;;;5323006;28;19923;-73
2023/08/06 15:58:08;;;;;;;;;;;;;;;;;;5324647;28;19911;-74
2023/08/06 16:00:40;;;;;;;;;;;;;;;;;;5324569;28;20307;-74
2023/08/06 16:03:11;;;;;;;;;;;;;;;;;;5324531;28;19995;-74
2023/08/06 16:05:43;;;;;;;;;;;;;;;;;;5324603;28;19912;-74
2023/08/06 16:08:14;;;;;;;;;;;;;;;;;;5325077;28;19908;-74
2023/08/06 16:10:45;;;;;;;;;;;;;;;;;;5323891;28;19915;-73
2023/08/06 16:13:16;;;;;;;;;;;;;;;;;;5325246;28;20011;-74
2023/08/06 16:15:47;;;;;;;;;;;;;;;;;;5322982;28;19916;-74
2023/08/06 16:18:18;;;;;;;;;;;;;;;;;;5324152;28;19908;-74
2023/08/06 16:20:50;;;;;;;;;;;;;;;;;;5323217;28;19915;-74
2023/08/06 16:23:22;;;;;;;;;;;;;;;;;;5323899;28;19964;-74
2023/08/06 16:25:53;;;;;;;;;;;;;;;;;;5322808;28;19915;-74
2023/08/06 16:28:26;;;;;;;;;;;;;;;;;;5324617;28;19999;-74
2023/08/06 16:30:57;;;;;;;;;;;;;;;;;;5323716;28;20017;-73
2023/08/06 16:33:28;;;;;;;;;;;;;;;;;;5324395;28;20006;-73
2023/08/06 16:35:59;;;;;;;;;;;;;;;;;;5324912;28;20480;-74
2023/08/06 16:38:31;;;;;;;;;;;;;;;;;;5322982;28;20002;-73
2023/08/06 16:41:03;;;;;;;;;;;;;;;;;;5324940;28;20004;-74
2023/08/06 16:43:34;;;;;;;;;;;;;;;;;;5324360;28;19950;-74
2023/08/06 16:46:06;;;;;;;;;;;;;;;;;;5324127;28;20374;-74
2023/08/06 16:48:37;;;;;;;;;;;;;;;;;;5324273;28;19997;-73
2023/08/06 16:51:08;;;;;;;;;;;;;;;;;;5324430;28;19911;-74
2023/08/06 16:53:39;;;;;;;;;;;;;;;;;;5323678;28;19918;-77
2023/08/06 16:56:10;;;;;;;;;;;;;;;;;;5324592;28;19915;-76
2023/08/06 16:58:41;;;;;;;;;;;;;;;;;;5323119;28;20388;-76
2023/08/06 17:01:13;;;;;;;;;;;;;;;;;;5324123;28;19930;-74
2023/08/06 17:03:44;;;;;;;;;;;;;;;;;;5323793;28;19914;-77
2023/08/06 17:06:16;;;;;;;;;;;;;;;;;;5323632;28;19918;-77
2023/08/06 17:08:47;;;;;;;;;;;;;;;;;;5324098;28;19911;-74
2023/08/06 17:11:18;;;;;;;;;;;;;;;;;;5324650;28;19972;-74